Terminal Aerodrome Forecast
Issued by NWS

Home | Current Version | Previous Version | Text Only | Print | Product List | Glossary On
Versions: 1 2 3 4 5 6 7 8 9 10 11 12 13 14 15 16 17 18 19 20
000
FTUS42 KGSP 072331
TAFHKY
TAF
KHKY 072331Z 0800/0824 VRB02KT P6SM BKN035
     FM080400 VRB02KT P6SM BKN025
     FM081000 31004KT 6SM BR OVC045
     FM081400 34008KT P6SM SCT050 BKN090
     FM081900 31010G18KT P6SM SCT150 BKN250=

USA.gov is the U.S. government's official web portal to all federal, state and local government web resources and services.